createdAt,value
2019-03-15T00:01:45.527Z,3.60
2019-03-15T00:04:14.052Z,3.30
2019-03-15T00:06:42.534Z,3.20
2019-03-15T00:09:11.056Z,3.10
2019-03-15T00:11:39.568Z,3.20
2019-03-15T00:14:08.171Z,3.10
2019-03-15T00:16:36.625Z,3.20
2019-03-15T00:19:05.275Z,3.20
2019-03-15T00:21:33.754Z,3.20
2019-03-15T00:24:02.193Z,3.30
2019-03-15T00:26:30.687Z,3.40
2019-03-15T00:29:00.252Z,3.40
2019-03-15T00:31:28.729Z,3.40
2019-03-15T00:33:57.172Z,3.40
2019-03-15T00:36:25.655Z,3.40
2019-03-15T00:38:54.193Z,3.40
2019-03-15T00:41:22.710Z,3.40
2019-03-15T00:43:51.212Z,3.50
2019-03-15T00:46:19.725Z,3.50
2019-03-15T00:48:48.257Z,3.50
2019-03-15T00:51:16.717Z,3.50
2019-03-15T00:53:45.218Z,3.40
2019-03-15T00:56:13.691Z,3.40
2019-03-15T00:58:42.154Z,3.40
2019-03-15T01:01:10.690Z,3.50
2019-03-15T01:03:39.251Z,3.50
2019-03-15T01:06:07.817Z,3.50
2019-03-15T01:08:36.369Z,3.60
2019-03-15T01:11:04.902Z,3.60
2019-03-15T01:13:33.446Z,3.60
2019-03-15T01:16:01.989Z,3.60
2019-03-15T01:18:30.527Z,3.60
2019-03-15T01:21:00.477Z,3.70
2019-03-15T01:23:28.942Z,3.70
2019-03-15T01:25:57.437Z,3.70
2019-03-15T01:28:25.911Z,3.70
2019-03-15T01:30:54.745Z,3.60
2019-03-15T01:33:23.205Z,3.60
2019-03-15T01:35:51.646Z,3.60
2019-03-15T01:38:20.156Z,3.60
2019-03-15T01:40:49.067Z,3.60
2019-03-15T01:43:17.758Z,3.60
2019-03-15T01:45:46.313Z,3.60
2019-03-15T01:48:14.816Z,3.50
2019-03-15T01:50:43.336Z,3.50
2019-03-15T01:53:11.797Z,3.50
2019-03-15T01:55:40.309Z,3.60
2019-03-15T01:58:08.770Z,3.50
2019-03-15T02:00:37.523Z,3.50
2019-03-15T02:03:06.735Z,3.50
2019-03-15T02:05:35.250Z,3.50
2019-03-15T02:08:03.722Z,3.50
2019-03-15T02:10:32.188Z,3.50
2019-03-15T02:13:00.673Z,3.60
2019-03-15T02:15:29.221Z,3.50
2019-03-15T02:17:57.702Z,3.50
2019-03-15T02:20:27.345Z,3.50
2019-03-15T02:22:55.874Z,3.50
2019-03-15T02:25:24.353Z,3.50
2019-03-15T02:27:52.823Z,3.50
2019-03-15T02:30:21.273Z,3.50
2019-03-15T02:32:49.767Z,3.50
2019-03-15T02:35:18.201Z,3.50
2019-03-15T02:37:46.771Z,3.50
2019-03-15T02:40:15.313Z,3.40
2019-03-15T02:42:43.836Z,3.40
2019-03-15T02:45:12.334Z,3.40
2019-03-15T02:47:40.819Z,3.40
2019-03-15T02:50:09.366Z,3.40
2019-03-15T02:52:37.830Z,3.30
2019-03-15T02:55:07.770Z,3.30
2019-03-15T02:57:36.288Z,3.40
2019-03-15T03:00:06.858Z,3.40
2019-03-15T03:02:35.359Z,3.40
2019-03-15T03:05:07.971Z,3.40
2019-03-15T03:07:36.575Z,3.40
2019-03-15T03:10:07.208Z,3.40
2019-03-15T03:12:35.666Z,3.40
2019-03-15T03:15:05.875Z,3.40
2019-03-15T03:17:34.330Z,3.40
2019-03-15T03:20:02.987Z,3.40
2019-03-15T03:22:31.495Z,3.40
2019-03-15T03:24:59.986Z,3.40
2019-03-15T03:27:28.488Z,3.40
2019-03-15T03:29:57.028Z,3.40
2019-03-15T03:32:25.508Z,3.40
2019-03-15T03:34:54.048Z,3.40
2019-03-15T03:37:22.566Z,3.40
2019-03-15T03:39:51.100Z,3.40
2019-03-15T03:42:19.636Z,3.40
2019-03-15T03:44:48.090Z,3.40
2019-03-15T03:47:16.553Z,3.30
2019-03-15T03:49:45.866Z,3.40
2019-03-15T03:52:14.342Z,3.30
2019-03-15T03:54:42.912Z,3.30
2019-03-15T03:57:11.432Z,3.30
2019-03-15T03:59:40.017Z,3.30
2019-03-15T04:02:08.664Z,3.30
2019-03-15T04:04:37.272Z,3.30
2019-03-15T04:07:05.757Z,3.20
2019-03-15T04:09:34.315Z,3.20
2019-03-15T04:12:02.755Z,3.20
2019-03-15T04:14:31.318Z,3.20
2019-03-15T04:16:59.803Z,3.20
2019-03-15T04:19:28.313Z,3.20
2019-03-15T04:21:56.818Z,3.20
2019-03-15T04:24:25.275Z,3.20
2019-03-15T04:26:53.822Z,3.20
2019-03-15T04:29:22.264Z,3.20
2019-03-15T04:31:50.730Z,3.20
2019-03-15T04:34:19.231Z,3.30
2019-03-15T04:36:47.674Z,3.30
2019-03-15T04:39:16.168Z,3.30
2019-03-15T04:41:44.737Z,3.30
2019-03-15T04:44:13.259Z,3.30
2019-03-15T04:46:41.725Z,3.30
2019-03-15T04:49:10.209Z,3.30
2019-03-15T04:51:38.648Z,3.30
2019-03-15T04:54:07.112Z,3.30
2019-03-15T04:56:35.654Z,3.40
2019-03-15T04:59:04.205Z,3.40
2019-03-15T05:01:32.694Z,3.40
2019-03-15T05:04:01.129Z,3.40
2019-03-15T05:06:29.605Z,3.40
2019-03-15T05:08:58.056Z,3.50
2019-03-15T05:11:26.585Z,3.50
2019-03-15T05:13:55.052Z,3.50
2019-03-15T05:16:23.625Z,3.60
2019-03-15T05:18:52.118Z,3.50
2019-03-15T05:21:20.558Z,3.60
2019-03-15T05:23:49.026Z,3.60
2019-03-15T05:26:17.540Z,3.60
2019-03-15T05:28:46.093Z,3.50
2019-03-15T05:31:14.660Z,3.50
2019-03-15T05:33:43.135Z,3.50
2019-03-15T05:36:11.674Z,3.50
2019-03-15T05:38:40.202Z,3.60
2019-03-15T05:41:08.685Z,3.50
2019-03-15T05:43:37.216Z,3.50
2019-03-15T05:46:05.691Z,3.50
2019-03-15T05:48:34.254Z,3.40
2019-03-15T05:51:02.823Z,3.30
2019-03-15T05:53:31.322Z,3.30
2019-03-15T05:55:59.782Z,3.30
2019-03-15T05:58:28.214Z,3.40
2019-03-15T06:00:56.711Z,3.40
2019-03-15T06:03:25.167Z,3.60
2019-03-15T06:05:53.734Z,3.70
2019-03-15T06:08:22.233Z,3.80
2019-03-15T06:10:50.707Z,3.90
2019-03-15T06:13:19.218Z,4.10
2019-03-15T06:15:47.650Z,4.30
2019-03-15T06:18:16.134Z,4.30
2019-03-15T06:20:44.569Z,4.30
2019-03-15T06:23:13.033Z,4.80
2019-03-15T06:25:41.532Z,4.90
2019-03-15T06:28:10.151Z,4.70
2019-03-15T06:30:38.616Z,4.50
2019-03-15T06:33:07.113Z,4.30
2019-03-15T06:35:36.309Z,4.20
2019-03-15T06:38:04.843Z,4.10
2019-03-15T06:40:33.344Z,4.10
2019-03-15T06:43:01.846Z,4.10
2019-03-15T06:45:31.935Z,4.20
2019-03-15T06:48:01.913Z,4.20
2019-03-15T06:50:30.379Z,4.30
2019-03-15T06:52:58.848Z,4.50
2019-03-15T06:55:27.350Z,4.60
2019-03-15T06:57:55.866Z,4.70
2019-03-15T07:00:24.363Z,4.80
2019-03-15T07:02:52.833Z,5.00
2019-03-15T07:05:21.341Z,5.20
2019-03-15T07:07:49.840Z,5.60
2019-03-15T07:10:18.317Z,5.60
2019-03-15T07:12:46.781Z,5.50
2019-03-15T07:15:15.386Z,5.30
2019-03-15T07:17:43.822Z,5.30
2019-03-15T07:20:14.326Z,5.20
2019-03-15T07:22:42.761Z,5.10
2019-03-15T07:25:11.771Z,5.00
2019-03-15T07:27:42.418Z,4.90
2019-03-15T07:30:12.925Z,4.90
2019-03-15T07:32:41.466Z,5.00
2019-03-15T07:35:10.059Z,5.00
2019-03-15T07:37:38.608Z,5.00
2019-03-15T07:40:10.117Z,4.90
2019-03-15T07:42:38.578Z,5.00
2019-03-15T07:45:09.379Z,5.10
2019-03-15T07:47:37.868Z,5.10
2019-03-15T07:50:09.397Z,5.20
2019-03-15T07:52:37.868Z,5.30
2019-03-15T07:55:08.254Z,5.30
2019-03-15T07:57:36.727Z,5.30
2019-03-15T08:00:10.923Z,5.40
2019-03-15T08:02:39.351Z,5.50
2019-03-15T08:05:08.872Z,5.40
2019-03-15T08:07:44.368Z,5.40
2019-03-15T08:10:14.168Z,5.30
2019-03-15T08:12:42.705Z,5.30
2019-03-15T08:15:12.997Z,5.40
2019-03-15T08:17:41.456Z,5.50
2019-03-15T08:20:14.290Z,5.60
2019-03-15T08:22:42.802Z,5.70
2019-03-15T08:25:12.172Z,5.60
2019-03-15T08:27:40.707Z,5.60
2019-03-15T08:30:14.314Z,5.60
2019-03-15T08:32:43.897Z,5.60
2019-03-15T08:35:13.268Z,5.70
2019-03-15T08:37:41.787Z,5.70
2019-03-15T08:40:11.781Z,5.80
2019-03-15T08:42:40.282Z,5.70
2019-03-15T08:45:17.423Z,5.70
2019-03-15T08:47:45.971Z,5.80
2019-03-15T08:50:18.845Z,5.90
2019-03-15T08:52:47.382Z,5.90
2019-03-15T08:55:15.849Z,5.80
2019-03-15T08:57:44.453Z,5.70
2019-03-15T09:00:19.186Z,5.60
2019-03-15T09:02:47.868Z,5.50
2019-03-15T09:05:16.934Z,5.50
2019-03-15T09:07:45.439Z,5.40
2019-03-15T09:10:23.345Z,5.40
2019-03-15T09:12:48.943Z,5.40
2019-03-15T09:15:17.459Z,5.40
2019-03-15T09:17:46.008Z,5.50
2019-03-15T09:20:16.570Z,5.50
2019-03-15T09:22:45.234Z,5.50
2019-03-15T09:25:20.207Z,5.60
2019-03-15T09:27:47.636Z,5.70
2019-03-15T09:30:23.502Z,5.60
2019-03-15T09:32:47.410Z,5.80
2019-03-15T09:35:15.952Z,5.80
2019-03-15T09:37:47.455Z,5.80
2019-03-15T09:40:17.686Z,5.90
2019-03-15T09:42:46.179Z,5.90
2019-03-15T09:45:16.401Z,5.80
2019-03-15T09:47:44.877Z,5.70
2019-03-15T09:50:22.941Z,5.80
2019-03-15T09:52:45.020Z,5.80
2019-03-15T09:55:14.254Z,5.80
2019-03-15T09:57:42.712Z,5.80
2019-03-15T10:00:19.167Z,5.90
2019-03-15T10:02:47.645Z,5.80
2019-03-15T10:05:16.110Z,5.80
2019-03-15T10:07:44.716Z,5.80
2019-03-15T10:10:18.293Z,6.00
2019-03-15T10:12:46.149Z,6.00
2019-03-15T10:15:15.525Z,6.00
2019-03-15T10:17:43.990Z,6.00
2019-03-15T10:20:13.159Z,5.90
2019-03-15T10:22:41.724Z,5.80
2019-03-15T10:25:19.415Z,5.90
2019-03-15T10:27:47.951Z,5.80
2019-03-15T10:30:19.733Z,5.80
2019-03-15T10:32:48.273Z,5.80
2019-03-15T10:35:16.771Z,5.80
2019-03-15T10:37:45.222Z,5.90
2019-03-15T10:40:21.643Z,5.90
2019-03-15T10:42:50.163Z,6.10
2019-03-15T10:45:18.647Z,6.10
2019-03-15T10:47:47.166Z,6.20
2019-03-15T10:50:17.959Z,6.40
2019-03-15T10:52:46.410Z,6.50
2019-03-15T10:55:15.039Z,6.40
2019-03-15T10:57:43.497Z,6.50
2019-03-15T11:00:19.802Z,6.50
2019-03-15T11:02:48.627Z,6.60
2019-03-15T11:05:17.156Z,6.60
2019-03-15T11:07:45.631Z,6.80
2019-03-15T11:10:15.018Z,7.00
2019-03-15T11:12:43.501Z,6.90
2019-03-15T11:15:13.296Z,7.00
2019-03-15T11:17:41.905Z,7.10
2019-03-15T11:20:11.460Z,7.00
2019-03-15T11:22:39.918Z,6.90
2019-03-15T11:25:10.044Z,6.80
2019-03-15T11:27:38.545Z,6.80
2019-03-15T11:30:09.455Z,6.70
2019-03-15T11:32:37.885Z,6.70
2019-03-15T11:35:09.055Z,6.70
2019-03-15T11:37:37.512Z,6.60
2019-03-15T11:40:13.799Z,6.70
2019-03-15T11:42:41.240Z,6.70
2019-03-15T11:45:10.811Z,6.70
2019-03-15T11:47:56.356Z,6.50
2019-03-15T11:50:14.028Z,6.30
2019-03-15T11:52:42.474Z,6.40
2019-03-15T11:55:11.064Z,6.50
2019-03-15T11:57:39.548Z,6.60
2019-03-15T12:00:13.752Z,6.70
2019-03-15T12:02:42.350Z,6.80
2019-03-15T12:05:11.516Z,6.80
2019-03-15T12:07:40.098Z,6.70
2019-03-15T12:10:13.599Z,6.70
2019-03-15T12:12:42.155Z,6.70
2019-03-15T12:15:13.017Z,6.80
2019-03-15T12:17:41.452Z,6.90
2019-03-15T12:20:11.294Z,6.80
2019-03-15T12:22:39.793Z,6.70
2019-03-15T12:25:09.812Z,6.70
2019-03-15T12:27:38.361Z,6.70
2019-03-15T12:30:12.570Z,6.80
2019-03-15T12:32:41.094Z,6.90
2019-03-15T12:35:11.616Z,6.90
2019-03-15T12:37:40.117Z,6.90
2019-03-15T12:40:10.514Z,6.90
2019-03-15T12:42:39.056Z,6.80
2019-03-15T12:45:12.422Z,6.70
2019-03-15T12:47:40.942Z,6.70
2019-03-15T12:50:11.025Z,6.70
2019-03-15T12:52:47.246Z,6.90
2019-03-15T12:55:11.017Z,7.00
2019-03-15T12:57:39.566Z,7.10
2019-03-15T13:00:13.159Z,7.20
2019-03-15T13:02:41.627Z,7.20
2019-03-15T13:05:10.564Z,7.00
2019-03-15T13:07:39.061Z,6.90
2019-03-15T13:10:12.374Z,6.90
2019-03-15T13:12:40.887Z,6.80
2019-03-15T13:15:11.749Z,6.80
2019-03-15T13:17:40.281Z,6.80
2019-03-15T13:20:11.815Z,6.70
2019-03-15T13:22:40.344Z,6.70
2019-03-15T13:25:10.811Z,6.70
2019-03-15T13:27:39.275Z,6.70
2019-03-15T13:30:15.411Z,6.70
2019-03-15T13:32:43.880Z,6.70
2019-03-15T13:35:12.868Z,6.80
2019-03-15T13:37:43.188Z,6.80
2019-03-15T13:40:16.500Z,6.80
2019-03-15T13:42:45.056Z,7.00
2019-03-15T13:45:15.540Z,7.10
2019-03-15T13:47:43.985Z,7.10
2019-03-15T13:50:17.180Z,7.10
2019-03-15T13:52:45.694Z,7.10
2019-03-15T13:55:14.327Z,7.20
2019-03-15T13:57:42.756Z,7.30
2019-03-15T14:00:20.353Z,7.30
2019-03-15T14:02:48.787Z,7.40
2019-03-15T14:05:17.284Z,7.60
2019-03-15T14:07:45.802Z,7.70
2019-03-15T14:10:17.425Z,7.70
2019-03-15T14:12:46.014Z,7.80
2019-03-15T14:15:15.786Z,7.80
2019-03-15T14:17:44.287Z,7.80
2019-03-15T14:20:13.523Z,7.70
2019-03-15T14:22:42.252Z,7.70
2019-03-15T14:25:22.121Z,7.70
2019-03-15T14:27:50.586Z,7.60
2019-03-15T14:30:19.122Z,7.60
2019-03-15T14:32:47.542Z,7.60
2019-03-15T14:35:16.007Z,7.60
2019-03-15T14:37:44.527Z,7.60
2019-03-15T14:40:13.436Z,7.70
2019-03-15T14:42:42.010Z,7.80
2019-03-15T14:45:12.173Z,7.90
2019-03-15T14:47:40.661Z,8.00
2019-03-15T14:50:14.854Z,8.00
2019-03-15T14:52:43.620Z,8.10
2019-03-15T14:55:16.768Z,8.30
2019-03-15T14:57:52.631Z,8.30
2019-03-15T15:00:17.524Z,8.40
2019-03-15T15:02:46.078Z,8.40
2019-03-15T15:05:14.600Z,8.60
2019-03-15T15:07:43.119Z,8.50
2019-03-15T15:10:14.649Z,8.40
2019-03-15T15:12:43.119Z,8.50
2019-03-15T15:15:13.114Z,8.40
2019-03-15T15:17:41.558Z,8.40
2019-03-15T15:20:12.106Z,8.30
2019-03-15T15:22:40.640Z,8.30
2019-03-15T15:25:14.034Z,8.20
2019-03-15T15:27:42.465Z,8.20
2019-03-15T15:30:15.595Z,8.20
2019-03-15T15:32:44.243Z,8.30
2019-03-15T15:35:13.462Z,8.30
2019-03-15T15:37:41.983Z,8.30
2019-03-15T15:40:14.302Z,8.40
2019-03-15T15:42:42.770Z,8.40
2019-03-15T15:45:12.239Z,8.40
2019-03-15T15:47:40.858Z,8.50
2019-03-15T15:50:12.201Z,8.60
2019-03-15T15:52:40.664Z,8.60
2019-03-15T15:55:10.658Z,8.60
2019-03-15T15:57:39.106Z,8.60
2019-03-15T16:00:15.070Z,8.60
2019-03-15T16:02:43.555Z,8.60
2019-03-15T16:05:12.215Z,8.60
2019-03-15T16:07:40.768Z,8.60
2019-03-15T16:10:17.398Z,8.70
2019-03-15T16:12:44.285Z,8.70
2019-03-15T16:15:14.310Z,8.70
2019-03-15T16:17:45.368Z,8.70
2019-03-15T16:20:13.219Z,8.80
2019-03-15T16:22:41.737Z,8.80
2019-03-15T16:25:11.076Z,8.80
2019-03-15T16:27:39.598Z,8.80
2019-03-15T16:30:15.840Z,8.80
2019-03-15T16:32:44.302Z,8.80
2019-03-15T16:35:13.697Z,8.90
2019-03-15T16:37:42.527Z,8.90
2019-03-15T16:40:15.043Z,8.90
2019-03-15T16:42:43.554Z,8.90
2019-03-15T16:45:29.363Z,8.90
2019-03-15T16:47:58.003Z,8.90
2019-03-15T16:50:26.463Z,8.90
2019-03-15T16:52:54.915Z,9.00
2019-03-15T16:55:23.346Z,8.90
2019-03-15T16:57:51.854Z,9.00
2019-03-15T17:00:20.477Z,9.00
2019-03-15T17:02:48.946Z,9.00
2019-03-15T17:05:17.474Z,9.00
2019-03-15T17:07:45.942Z,8.90
2019-03-15T17:10:18.629Z,8.90
2019-03-15T17:12:47.169Z,8.80
2019-03-15T17:15:28.673Z,8.90
2019-03-15T17:17:57.242Z,8.90
2019-03-15T17:20:25.700Z,8.90
2019-03-15T17:22:54.181Z,8.80
2019-03-15T17:25:22.633Z,8.80
2019-03-15T17:27:51.095Z,8.80
2019-03-15T17:30:19.549Z,8.80
2019-03-15T17:32:48.022Z,8.70
2019-03-15T17:35:20.957Z,8.80
2019-03-15T17:37:49.406Z,8.80
2019-03-15T17:40:21.502Z,8.80
2019-03-15T17:42:50.004Z,8.80
2019-03-15T17:45:18.469Z,8.80
2019-03-15T17:47:47.506Z,8.80
2019-03-15T17:50:23.286Z,8.80
2019-03-15T17:52:51.718Z,8.70
2019-03-15T17:55:20.273Z,8.70
2019-03-15T17:57:48.775Z,8.80
2019-03-15T18:00:35.337Z,8.80
2019-03-15T18:03:20.490Z,8.80
2019-03-15T18:05:42.282Z,8.80
2019-03-15T18:08:10.734Z,8.80
2019-03-15T18:10:39.161Z,8.80
2019-03-15T18:13:07.673Z,8.70
2019-03-15T18:15:36.217Z,8.80
2019-03-15T18:18:05.024Z,8.80
2019-03-15T18:20:33.639Z,8.80
2019-03-15T18:23:02.165Z,8.80
2019-03-15T18:25:30.681Z,8.70
2019-03-15T18:28:01.217Z,8.80
2019-03-15T18:30:29.642Z,8.80
2019-03-15T18:32:58.131Z,8.70
2019-03-15T18:35:33.790Z,8.70
2019-03-15T18:37:56.768Z,8.70
2019-03-15T18:40:25.221Z,8.70
2019-03-15T18:42:53.679Z,8.70
2019-03-15T18:45:22.143Z,8.70
2019-03-15T18:47:50.759Z,8.70
2019-03-15T18:50:25.917Z,8.70
2019-03-15T18:52:54.614Z,8.70
2019-03-15T18:55:23.108Z,8.70
2019-03-15T18:57:51.577Z,8.70
2019-03-15T19:00:26.443Z,8.70
2019-03-15T19:02:54.960Z,8.70
2019-03-15T19:05:23.442Z,8.60
2019-03-15T19:07:51.937Z,8.70
2019-03-15T19:10:20.428Z,8.70
2019-03-15T19:12:48.983Z,8.70
2019-03-15T19:15:21.473Z,8.70
2019-03-15T19:17:50.037Z,8.60
2019-03-15T19:20:18.753Z,8.60
2019-03-15T19:22:47.182Z,8.60
2019-03-15T19:25:16.363Z,8.70
2019-03-15T19:27:45.133Z,8.60
2019-03-15T19:30:18.249Z,8.60
2019-03-15T19:32:46.768Z,8.60
2019-03-15T19:35:15.281Z,8.60
2019-03-15T19:37:43.707Z,8.60
2019-03-15T19:40:19.219Z,8.60
2019-03-15T19:42:47.790Z,8.50
2019-03-15T19:45:19.034Z,8.50
2019-03-15T19:47:47.536Z,8.50
2019-03-15T19:50:21.006Z,8.60
2019-03-15T19:52:49.628Z,8.60
2019-03-15T19:55:18.263Z,8.50
2019-03-15T19:57:46.805Z,8.50
2019-03-15T20:00:20.395Z,8.50
2019-03-15T20:02:48.977Z,8.50
2019-03-15T20:05:17.457Z,8.50
2019-03-15T20:07:46.150Z,8.60
2019-03-15T20:10:16.801Z,8.50
2019-03-15T20:12:45.556Z,8.50
2019-03-15T20:15:15.425Z,8.60
2019-03-15T20:17:43.991Z,8.60
2019-03-15T20:20:13.813Z,8.60
2019-03-15T20:22:42.346Z,8.60
2019-03-15T20:25:15.363Z,8.60
2019-03-15T20:27:43.854Z,8.60
2019-03-15T20:30:26.002Z,8.60
2019-03-15T20:32:50.477Z,8.60
2019-03-15T20:35:18.945Z,8.40
2019-03-15T20:37:47.374Z,7.70
2019-03-15T20:40:15.868Z,7.40
2019-03-15T20:42:44.393Z,7.00
2019-03-15T20:45:31.057Z,6.70
2019-03-15T20:48:01.006Z,6.50
2019-03-15T20:50:29.483Z,6.40
2019-03-15T20:53:08.611Z,6.30
2019-03-15T20:55:28.972Z,6.20
2019-03-15T20:57:57.704Z,6.20
2019-03-15T21:00:35.627Z,6.10
2019-03-15T21:02:56.383Z,6.10
2019-03-15T21:05:24.927Z,6.10
2019-03-15T21:07:53.454Z,6.10
2019-03-15T21:10:21.947Z,6.10
2019-03-15T21:12:50.436Z,6.10
2019-03-15T21:15:18.871Z,6.10
2019-03-15T21:17:47.461Z,6.10
2019-03-15T21:20:22.304Z,6.20
2019-03-15T21:22:50.032Z,6.20
2019-03-15T21:25:18.577Z,6.20
2019-03-15T21:27:53.523Z,6.20
2019-03-15T21:30:18.540Z,6.20
2019-03-15T21:32:47.079Z,6.20
2019-03-15T21:35:15.533Z,6.20
2019-03-15T21:37:44.025Z,6.20
2019-03-15T21:40:13.615Z,6.20
2019-03-15T21:42:42.112Z,6.10
2019-03-15T21:45:11.706Z,6.10
2019-03-15T21:47:40.158Z,6.10
2019-03-15T21:50:16.449Z,6.10
2019-03-15T21:52:44.885Z,6.10
2019-03-15T21:55:13.444Z,6.00
2019-03-15T21:57:41.952Z,6.00
2019-03-15T22:00:18.440Z,6.00
2019-03-15T22:02:46.967Z,5.90
2019-03-15T22:05:15.458Z,5.90
2019-03-15T22:07:43.979Z,5.80
2019-03-15T22:10:16.315Z,5.90
2019-03-15T22:12:44.964Z,5.80
2019-03-15T22:15:13.895Z,5.80
2019-03-15T22:17:42.421Z,5.80
2019-03-15T22:20:13.111Z,5.80
2019-03-15T22:22:41.593Z,5.90
2019-03-15T22:25:10.241Z,5.90
2019-03-15T22:27:38.803Z,5.90
2019-03-15T22:30:13.152Z,5.90
2019-03-15T22:32:41.811Z,5.90
2019-03-15T22:35:10.572Z,5.90
2019-03-15T22:37:39.086Z,5.80
2019-03-15T22:40:12.027Z,5.90
2019-03-15T22:42:40.459Z,5.90
2019-03-15T22:45:11.238Z,5.90
2019-03-15T22:47:39.687Z,5.90
2019-03-15T22:50:09.924Z,5.90
2019-03-15T22:52:38.430Z,5.90
2019-03-15T22:55:10.810Z,5.90
2019-03-15T22:57:39.497Z,5.90
2019-03-15T23:00:14.002Z,5.90
2019-03-15T23:02:42.517Z,5.90
2019-03-15T23:05:11.057Z,5.90
2019-03-15T23:07:39.501Z,5.90
2019-03-15T23:10:10.253Z,5.90
2019-03-15T23:12:38.745Z,5.90
2019-03-15T23:15:09.102Z,5.90
2019-03-15T23:17:37.651Z,5.90
2019-03-15T23:20:08.210Z,5.90
2019-03-15T23:22:36.657Z,5.90
2019-03-15T23:25:06.351Z,5.90
2019-03-15T23:27:34.875Z,5.80
2019-03-15T23:30:04.679Z,5.80
2019-03-15T23:32:33.158Z,5.80
2019-03-15T23:35:01.626Z,5.80
2019-03-15T23:37:30.064Z,5.80
2019-03-15T23:39:58.525Z,5.80
2019-03-15T23:42:27.025Z,5.80
2019-03-15T23:44:55.580Z,5.80
2019-03-15T23:47:24.050Z,5.80
2019-03-15T23:49:52.601Z,5.70
2019-03-15T23:52:21.050Z,5.70
2019-03-15T23:54:49.525Z,5.80
2019-03-15T23:57:18.017Z,5.70
2019-03-15T23:59:46.580Z,5.70
